Time;durP1;ratioP1;P1;durP2;ratioP2;P2;SDS_P1;SDS_P2;PMS_P1;PMS_P2;Temp;Humidity;BMP_temperature;BMP_pressure;BME280_temperature;BME280_humidity;BME280_pressure;Samples;Min_cycle;Max_cycle;Signal;HPM_P1;HPM_P2
2023/07/08 00:00:50;;;;;;;7.20;5.03;;;14.30;98.30;;;;;;5046365;28;20532;-58
2023/07/08 00:03:16;;;;;;;6.03;4.20;;;14.20;97.40;;;;;;5025252;28;20125;-59
2023/07/08 00:05:41;;;;;;;4.95;4.43;;;14.20;97.00;;;;;;5031774;28;20274;-60
2023/07/08 00:08:14;;;;;;;5.22;4.45;;;14.10;96.00;;;;;;5043921;28;20056;-58
2023/07/08 00:10:40;;;;;;;6.72;4.78;;;14.10;95.90;;;;;;5036208;28;20028;-58
2023/07/08 00:13:05;;;;;;;7.05;4.00;;;14.10;98.00;;;;;;5027807;28;20116;-51
2023/07/08 00:15:32;;;;;;;7.65;4.38;;;14.10;99.90;;;;;;5028387;28;20033;-53
2023/07/08 00:17:58;;;;;;;6.82;4.43;;;14.00;97.70;;;;;;5026874;28;20029;-56
2023/07/08 00:20:36;;;;;;;5.22;4.43;;;14.00;96.40;;;;;;5045634;28;20473;-52
2023/07/08 00:23:02;;;;;;;4.57;4.10;;;14.00;96.40;;;;;;5047514;28;20075;-54
2023/07/08 00:25:28;;;;;;;6.00;4.32;;;14.00;97.50;;;;;;5028579;28;20451;-51
2023/07/08 00:27:54;;;;;;;7.43;4.45;;;13.90;97.60;;;;;;5049272;28;20041;-55
2023/07/08 00:30:26;;;;;;;5.15;4.10;;;13.90;99.50;;;;;;5031728;28;20045;-54
2023/07/08 00:32:56;;;;;;;5.72;4.47;;;13.90;98.00;;;;;;5052600;28;20283;-54
2023/07/08 00:35:32;;;;;;;5.43;4.40;;;13.80;97.40;;;;;;5031521;28;20489;-55
2023/07/08 00:38:01;;;;;;;5.95;4.30;;;13.80;98.50;;;;;;5052622;28;20146;-54
2023/07/08 00:40:31;;;;;;;5.63;4.70;;;13.80;99.30;;;;;;5032197;28;20091;-54
2023/07/08 00:43:03;;;;;;;5.40;4.60;;;13.80;98.20;;;;;;5052414;28;20108;-52
2023/07/08 00:45:34;;;;;;;7.90;4.30;;;13.80;98.80;;;;;;5014642;28;20026;-53
2023/07/08 00:48:11;;;;;;;6.63;4.80;;;13.70;99.90;;;;;;5052382;28;20539;-53
2023/07/08 00:50:37;;;;;;;6.40;4.53;;;13.70;99.90;;;;;;5016739;28;20052;-53
2023/07/08 00:53:32;;;;;;;6.25;4.57;;;13.70;99.90;;;;;;5052264;28;20072;-55
2023/07/08 00:56:26;;;;;;;6.85;4.68;;;13.70;99.90;;;;;;5052199;28;20033;-52
2023/07/08 00:59:19;;;;;;;6.05;3.85;;;13.60;99.90;;;;;;5021743;28;20091;-55
2023/07/08 01:01:45;;;;;;;5.72;4.15;;;13.60;99.90;;;;;;5032340;28;20060;-55
2023/07/08 01:04:23;;;;;;;6.15;4.55;;;13.60;99.90;;;;;;5049637;28;20403;-54
2023/07/08 01:06:57;;;;;;;7.28;4.85;;;13.60;99.90;;;;;;5006476;28;20120;-55
2023/07/08 01:09:26;;;;;;;5.40;4.88;;;13.50;99.90;;;;;;5050094;28;20068;-55
2023/07/08 01:11:52;;;;;;;7.93;4.60;;;13.50;99.90;;;;;;5031945;28;20022;-55
2023/07/08 01:14:20;;;;;;;6.03;4.70;;;13.50;99.90;;;;;;5049329;28;20033;-53
2023/07/08 01:16:46;;;;;;;7.55;4.93;;;13.50;99.90;;;;;;5031984;28;20061;-55
2023/07/08 01:19:16;;;;;;;5.72;4.60;;;13.50;99.90;;;;;;5049051;28;20029;-52
2023/07/08 01:21:59;;;;;;;6.60;4.75;;;13.50;99.90;;;;;;5012096;28;20037;-55
2023/07/08 01:24:24;;;;;;;5.90;4.88;;;13.50;99.90;;;;;;5049751;28;20032;-55
2023/07/08 01:26:50;;;;;;;8.07;4.88;;;13.40;99.90;;;;;;5032159;28;20041;-53
2023/07/08 01:29:15;;;;;;;7.75;5.45;;;13.50;99.90;;;;;;5048820;28;20037;-54
2023/07/08 01:31:48;;;;;;;7.57;4.47;;;13.40;99.90;;;;;;5051529;28;20029;-53
2023/07/08 01:34:17;;;;;;;5.80;4.40;;;13.40;99.90;;;;;;5037933;28;20041;-53
2023/07/08 01:36:49;;;;;;;7.82;4.93;;;13.40;99.90;;;;;;5031581;28;20489;-54
2023/07/08 01:39:19;;;;;;;6.15;4.30;;;13.40;99.90;;;;;;5025834;28;20029;-54
2023/07/08 01:41:45;;;;;;;4.88;4.28;;;13.30;99.90;;;;;;5030980;28;20029;-52
2023/07/08 01:44:31;;;;;;;7.10;4.43;;;13.30;99.90;;;;;;5048660;28;20052;-52
2023/07/08 01:47:10;;;;;;;6.45;5.15;;;13.30;99.90;;;;;;5031340;28;20060;-54
2023/07/08 01:49:39;;;;;;;6.88;5.40;;;13.30;99.90;;;;;;5032152;28;20059;-52
2023/07/08 01:52:05;;;;;;;9.35;6.05;;;13.30;99.90;;;;;;5031287;28;20034;-54
2023/07/08 01:54:31;;;;;;;8.23;5.45;;;13.20;99.90;;;;;;5048502;28;20033;-52
2023/07/08 01:56:57;;;;;;;6.57;5.47;;;13.20;99.90;;;;;;5031653;28;20041;-53
2023/07/08 01:59:22;;;;;;;6.60;4.78;;;13.20;99.90;;;;;;5048354;28;20044;-55
2023/07/08 02:01:49;;;;;;;7.93;5.38;;;13.20;99.90;;;;;;5031751;28;20025;-51
2023/07/08 02:04:15;;;;;;;7.72;6.18;;;13.20;99.90;;;;;;5048534;28;20029;-54
2023/07/08 02:06:42;;;;;;;7.00;5.65;;;13.10;99.90;;;;;;5024562;28;20521;-53
2023/07/08 02:09:07;;;;;;;8.38;5.35;;;13.20;99.90;;;;;;5048397;28;20041;-55
2023/07/08 02:11:33;;;;;;;7.53;4.55;;;13.10;99.90;;;;;;5050856;28;20108;-52
2023/07/08 02:14:00;;;;;;;6.47;4.47;;;13.10;99.90;;;;;;5035691;28;20047;-55
2023/07/08 02:16:26;;;;;;;7.00;4.53;;;13.10;99.90;;;;;;5050685;28;20511;-53
2023/07/08 02:18:51;;;;;;;5.32;4.00;;;13.00;99.90;;;;;;5034616;28;20037;-54
2023/07/08 02:21:17;;;;;;;9.15;4.28;;;13.00;99.90;;;;;;5050728;28;20404;-55
2023/07/08 02:23:45;;;;;;;5.97;4.00;;;13.00;99.90;;;;;;5033197;28;20112;-55
2023/07/08 02:26:11;;;;;;;6.35;4.40;;;13.00;99.90;;;;;;5050747;28;20389;-55
2023/07/08 02:28:36;;;;;;;6.53;4.47;;;12.90;99.90;;;;;;5032520;28;20036;-55
2023/07/08 02:31:02;;;;;;;5.25;4.38;;;12.90;99.90;;;;;;5050238;28;20041;-55
2023/07/08 02:33:32;;;;;;;5.95;4.60;;;12.90;99.90;;;;;;5031040;28;20061;-51
2023/07/08 02:36:00;;;;;;;5.63;4.45;;;12.90;99.90;;;;;;5050674;28;20112;-55
2023/07/08 02:38:25;;;;;;;5.10;4.22;;;12.90;99.90;;;;;;5030263;28;20516;-55
2023/07/08 02:41:11;;;;;;;7.57;5.40;;;12.80;99.90;;;;;;5050300;28;20024;-53
2023/07/08 02:43:37;;;;;;;5.73;4.50;;;12.80;99.90;;;;;;5030450;28;20105;-52
2023/07/08 02:46:02;;;;;;;6.93;5.13;;;12.80;99.90;;;;;;5050191;28;20330;-52
2023/07/08 02:48:28;;;;;;;5.95;4.63;;;12.80;99.90;;;;;;5030902;28;20026;-54
2023/07/08 02:50:59;;;;;;;5.65;4.68;;;12.80;99.90;;;;;;5049746;28;20040;-54
2023/07/08 02:53:25;;;;;;;7.03;4.57;;;12.80;99.90;;;;;;5029795;28;20543;-54
2023/07/08 02:55:50;;;;;;;6.07;5.03;;;12.80;99.90;;;;;;5049911;28;20033;-53
2023/07/08 02:58:16;;;;;;;11.65;5.47;;;12.80;99.90;;;;;;5028897;28;20034;-55
2023/07/08 03:00:41;;;;;;;6.47;5.78;;;12.80;99.90;;;;;;5049840;28;20120;-56
2023/07/08 03:03:07;;;;;;;6.72;5.25;;;12.70;99.90;;;;;;5030288;28;20029;-51
2023/07/08 03:05:32;;;;;;;9.82;5.93;;;12.80;99.90;;;;;;5034104;28;20032;-54
2023/07/08 03:07:58;;;;;;;6.80;5.18;;;12.80;99.90;;;;;;5030353;28;20489;-54
2023/07/08 03:10:24;;;;;;;6.45;5.20;;;12.80;99.90;;;;;;5029253;28;20029;-56
2023/07/08 03:12:49;;;;;;;6.55;5.13;;;12.80;99.90;;;;;;5048747;28;20025;-53
2023/07/08 03:15:15;;;;;;;5.90;5.00;;;12.80;99.90;;;;;;5028327;28;20045;-55
2023/07/08 03:17:41;;;;;;;7.60;5.05;;;12.90;99.90;;;;;;5048552;28;20044;-56
2023/07/08 03:20:08;;;;;;;6.30;5.38;;;12.90;99.90;;;;;;5028250;28;20116;-55
2023/07/08 03:22:33;;;;;;;5.93;5.03;;;12.90;99.90;;;;;;5048848;28;20086;-54
2023/07/08 03:24:59;;;;;;;5.70;4.93;;;12.90;99.90;;;;;;5028273;28;20033;-56
2023/07/08 03:27:24;;;;;;;9.57;5.03;;;12.90;99.90;;;;;;5048706;28;20060;-55
2023/07/08 03:29:50;;;;;;;5.93;4.93;;;12.90;99.90;;;;;;5035537;28;20049;-52
2023/07/08 03:32:15;;;;;;;6.97;4.85;;;13.00;99.90;;;;;;5047436;28;20033;-55
2023/07/08 03:34:41;;;;;;;5.80;4.85;;;13.10;99.90;;;;;;5030183;28;20052;-53
2023/07/08 03:37:08;;;;;;;6.15;4.25;;;13.10;99.90;;;;;;5030289;28;20029;-55
2023/07/08 03:39:34;;;;;;;4.97;4.32;;;13.20;99.90;;;;;;5049069;28;20021;-55
2023/07/08 03:42:00;;;;;;;5.85;4.55;;;13.40;99.90;;;;;;5028376;28;20503;-54
2023/07/08 03:44:25;;;;;;;5.65;4.53;;;13.90;99.90;;;;;;5048791;28;20033;-56
2023/07/08 03:46:51;;;;;;;4.93;4.30;;;14.60;99.90;;;;;;5028022;28;20056;-54
2023/07/08 03:49:23;;;;;;;4.60;4.03;;;15.40;99.90;;;;;;5048647;28;20041;-56
2023/07/08 03:51:50;;;;;;;4.93;3.97;;;16.10;96.20;;;;;;5041886;28;20033;-58
2023/07/08 03:54:17;;;;;;;4.50;3.42;;;16.80;93.50;;;;;;5049234;28;20028;-57
2023/07/08 03:56:42;;;;;;;5.45;3.58;;;17.50;89.40;;;;;;5027970;28;20091;-56
2023/07/08 03:59:08;;;;;;;3.92;3.17;;;18.10;87.60;;;;;;5048526;28;20396;-53
2023/07/08 04:01:34;;;;;;;5.35;3.33;;;18.70;83.80;;;;;;5027919;28;20052;-54
2023/07/08 04:04:00;;;;;;;3.53;3.20;;;19.40;81.10;;;;;;5047752;28;20370;-51
2023/07/08 04:06:28;;;;;;;3.95;2.92;;;20.00;80.10;;;;;;5021252;28;20032;-55
2023/07/08 04:08:54;;;;;;;2.97;2.40;;;20.50;77.70;;;;;;5048631;28;20131;-55
2023/07/08 04:11:22;;;;;;;4.30;3.15;;;21.00;75.50;;;;;;5027715;28;20116;-54
2023/07/08 04:13:48;;;;;;;6.40;3.22;;;21.60;73.10;;;;;;5048796;28;20436;-56
2023/07/08 04:16:24;;;;;;;2.72;2.53;;;22.00;70.80;;;;;;5027705;28;20065;-53
2023/07/08 04:18:53;;;;;;;2.85;2.35;;;22.50;64.50;;;;;;5009481;28;20030;-55
2023/07/08 04:21:19;;;;;;;3.30;2.80;;;23.00;65.50;;;;;;5046523;28;20025;-54
2023/07/08 04:23:44;;;;;;;3.20;2.90;;;23.40;64.20;;;;;;5048681;28;20079;-56
2023/07/08 04:26:10;;;;;;;4.63;3.30;;;23.70;63.30;;;;;;5027649;28;20612;-54
2023/07/08 04:28:35;;;;;;;2.75;2.45;;;24.10;60.80;;;;;;5048205;28;20041;-55
2023/07/08 04:31:01;;;;;;;3.55;2.92;;;24.60;60.70;;;;;;5027254;28;20148;-55
2023/07/08 04:33:27;;;;;;;3.10;2.40;;;25.10;58.80;;;;;;5048291;28;20036;-54
2023/07/08 04:35:54;;;;;;;2.97;2.25;;;25.60;57.20;;;;;;5027659;28;20060;-55
2023/07/08 04:38:22;;;;;;;2.80;2.47;;;26.20;55.20;;;;;;5029132;28;20061;-54
2023/07/08 04:40:50;;;;;;;3.05;2.40;;;26.60;53.70;;;;;;5039410;28;20075;-50
2023/07/08 04:43:17;;;;;;;3.30;2.15;;;27.10;50.90;;;;;;5029118;28;20018;-55
2023/07/08 04:45:45;;;;;;;2.53;2.33;;;27.50;48.40;;;;;;5041092;28;20025;-53
2023/07/08 04:48:14;;;;;;;2.92;2.20;;;27.70;45.50;;;;;;5028982;28;20022;-55
2023/07/08 04:50:48;;;;;;;5.45;2.83;;;28.10;42.90;;;;;;5041253;28;20425;-54
2023/07/08 04:53:14;;;;;;;3.15;2.65;;;28.50;39.20;;;;;;5028301;28;20056;-53
2023/07/08 04:55:53;;;;;;;2.63;2.20;;;28.90;38.10;;;;;;5048811;28;20492;-54
2023/07/08 04:58:19;;;;;;;2.85;2.05;;;29.40;31.10;;;;;;5009187;28;20026;-55
2023/07/08 05:00:45;;;;;;;2.45;2.25;;;29.80;35.20;;;;;;5044795;28;20022;-54
2023/07/08 05:03:10;;;;;;;2.53;2.13;;;30.10;33.80;;;;;;5028892;28;20033;-57
2023/07/08 05:05:36;;;;;;;2.40;2.20;;;30.60;32.70;;;;;;5030728;28;20409;-55
2023/07/08 05:08:02;;;;;;;2.33;1.95;;;31.00;30.70;;;;;;5026848;28;20041;-55
2023/07/08 05:10:27;;;;;;;4.60;2.30;;;31.30;28.80;;;;;;5047950;28;20420;-56
2023/07/08 05:12:53;;;;;;;2.40;2.20;;;31.60;26.80;;;;;;5027432;28;20037;-55
2023/07/08 05:15:18;;;;;;;3.60;2.45;;;32.20;25.70;;;;;;5024729;28;20087;-56
2023/07/08 05:17:44;;;;;;;3.45;2.22;;;32.50;23.60;;;;;;5027425;28;20029;-57
2023/07/08 05:20:12;;;;;;;2.30;2.00;;;32.80;21.40;;;;;;5036823;28;20036;-56
2023/07/08 05:22:38;;;;;;;2.60;1.98;;;33.20;20.50;;;;;;5029303;28;20032;-56
2023/07/08 05:25:05;;;;;;;2.30;2.10;;;33.60;19.20;;;;;;5033669;28;20025;-57
2023/07/08 05:27:30;;;;;;;2.17;1.98;;;33.90;17.70;;;;;;5029504;28;20474;-56
2023/07/08 05:29:56;;;;;;;2.40;2.00;;;34.50;16.50;;;;;;5040134;28;20064;-57
2023/07/08 05:32:22;;;;;;;2.60;1.90;;;35.00;15.10;;;;;;5027486;28;20593;-57
2023/07/08 05:34:48;;;;;;;2.55;1.92;;;35.50;14.10;;;;;;5032232;28;20123;-58
2023/07/08 05:37:14;;;;;;;3.38;1.88;;;35.90;12.90;;;;;;5028871;28;20112;-57
2023/07/08 05:39:39;;;;;;;2.30;2.00;;;36.10;11.20;;;;;;5048684;28;20029;-56
2023/07/08 05:42:05;;;;;;;3.88;2.10;;;35.80;10.20;;;;;;5020114;28;20036;-54
2023/07/08 05:44:31;;;;;;;1.73;1.63;;;35.80;9.10;;;;;;5048810;28;20029;-54
2023/07/08 05:46:56;;;;;;;1.92;1.80;;;36.20;9.00;;;;;;5028209;28;20030;-56
2023/07/08 05:49:22;;;;;;;2.05;1.95;;;36.70;8.40;;;;;;5041510;28;20051;-55
2023/07/08 05:51:47;;;;;;;2.53;1.80;;;37.00;6.60;;;;;;5017119;28;20038;-56
2023/07/08 05:54:14;;;;;;;1.92;1.70;;;37.30;7.00;;;;;;5047729;28;20055;-56
2023/07/08 05:56:39;;;;;;;1.63;1.52;;;38.00;6.50;;;;;;5027835;28;20079;-57
2023/07/08 05:59:05;;;;;;;3.92;1.67;;;38.30;5.90;;;;;;5036121;28;20046;-56
2023/07/08 06:01:31;;;;;;;5.00;2.38;;;38.30;5.10;;;;;;5032971;28;20032;-57
2023/07/08 06:03:59;;;;;;;3.08;2.13;;;37.60;2.70;;;;;;5028737;28;20844;-57
2023/07/08 06:06:25;;;;;;;2.05;1.85;;;37.60;4.10;;;;;;5043044;28;20051;-56
2023/07/08 06:08:51;;;;;;;1.92;1.60;;;38.20;3.90;;;;;;5033168;28;20052;-57
2023/07/08 06:11:16;;;;;;;3.17;2.00;;;39.00;3.50;;;;;;5028676;28;20029;-57
2023/07/08 06:13:42;;;;;;;2.13;1.95;;;39.50;3.20;;;;;;5043899;28;20098;-57
2023/07/08 06:16:07;;;;;;;2.10;1.88;;;39.80;2.80;;;;;;5029933;28;20072;-58
2023/07/08 06:18:33;;;;;;;2.35;2.15;;;39.90;2.30;;;;;;5032468;28;20069;-60
2023/07/08 06:20:58;;;;;;;2.42;2.10;;;39.90;1.40;;;;;;5035257;28;20079;-58
2023/07/08 06:23:25;;;;;;;2.75;2.35;;;39.80;1.70;;;;;;5025865;28;20481;-57
2023/07/08 06:25:51;;;;;;;3.30;2.05;;;40.00;1.40;;;;;;5023813;28;20037;-58
2023/07/08 06:28:16;;;;;;;3.53;2.00;;;40.30;1.30;;;;;;5030779;28;20049;-59
2023/07/08 06:30:42;;;;;;;2.28;1.95;;;40.80;1.00;;;;;;5030960;28;20589;-56
2023/07/08 06:33:08;;;;;;;3.00;2.00;;;41.10;1.00;;;;;;5033409;28;20032;-58
2023/07/08 06:35:34;;;;;;;2.55;2.03;;;41.20;1.00;;;;;;5050483;28;20020;-56
2023/07/08 06:37:59;;;;;;;3.25;1.83;;;41.10;1.00;;;;;;5030179;28;20061;-59
2023/07/08 06:40:25;;;;;;;2.60;2.35;;;41.30;1.00;;;;;;5048435;28;20126;-59
2023/07/08 06:42:51;;;;;;;2.97;2.20;;;41.30;1.00;;;;;;5051225;28;20044;-58
2023/07/08 06:45:17;;;;;;;2.17;1.95;;;41.90;1.00;;;;;;5029871;28;20044;-58
2023/07/08 06:47:43;;;;;;;5.63;2.50;;;42.60;1.00;;;;;;5049913;28;20041;-59
2023/07/08 06:50:08;;;;;;;2.28;2.08;;;42.10;1.00;;;;;;5028358;28;20029;-57
2023/07/08 06:52:36;;;;;;;2.95;2.00;;;42.00;1.00;;;;;;5050055;28;20513;-58
2023/07/08 06:55:04;;;;;;;2.45;2.08;;;42.20;1.00;;;;;;5029134;28;20074;-57
2023/07/08 06:57:30;;;;;;;3.55;2.08;;;42.30;1.00;;;;;;5050091;28;20083;-59
2023/07/08 06:59:55;;;;;;;2.35;2.10;;;42.90;1.00;;;;;;5029403;28;20033;-58
2023/07/08 07:02:21;;;;;;;2.53;2.33;;;42.90;1.00;;;;;;5049821;28;20071;-58
2023/07/08 07:04:46;;;;;;;2.08;1.70;;;43.20;1.00;;;;;;5028474;28;20040;-58
2023/07/08 07:07:12;;;;;;;4.00;2.28;;;43.10;1.00;;;;;;5048667;28;20024;-58
2023/07/08 07:09:38;;;;;;;3.08;2.40;;;43.10;1.00;;;;;;5028866;28;20452;-58
2023/07/08 07:12:06;;;;;;;2.05;1.88;;;42.90;1.00;;;;;;5049668;28;20063;-59
2023/07/08 07:14:32;;;;;;;4.38;2.05;;;43.20;1.00;;;;;;5028528;28;20029;-59
2023/07/08 07:16:57;;;;;;;2.67;2.10;;;43.70;1.00;;;;;;5045578;28;20052;-58
2023/07/08 07:19:23;;;;;;;3.92;1.95;;;42.80;1.00;;;;;;5050372;28;20032;-58
2023/07/08 07:21:49;;;;;;;10.50;2.22;;;43.20;1.00;;;;;;5048523;28;20025;-59
2023/07/08 07:24:14;;;;;;;2.20;2.00;;;43.40;1.00;;;;;;5050313;28;20037;-58
2023/07/08 07:26:40;;;;;;;2.17;1.98;;;44.00;1.00;;;;;;5030520;28;20513;-57
2023/07/08 07:29:06;;;;;;;1.73;1.63;;;44.60;1.00;;;;;;5012738;28;20065;-58
2023/07/08 07:31:34;;;;;;;3.35;1.95;;;45.20;1.00;;;;;;5050196;28;20112;-59
2023/07/08 07:34:01;;;;;;;3.35;1.90;;;45.80;1.00;;;;;;5028555;28;20029;-57
2023/07/08 07:36:28;;;;;;;1.92;1.83;;;45.60;1.00;;;;;;5039366;28;20021;-59
2023/07/08 07:38:54;;;;;;;2.40;1.70;;;45.60;1.00;;;;;;5028647;28;20086;-58
2023/07/08 07:41:20;;;;;;;2.47;1.85;;;45.10;1.00;;;;;;5049263;28;20037;-59
2023/07/08 07:43:45;;;;;;;2.85;1.67;;;45.10;1.00;;;;;;5028491;28;20440;-57
2023/07/08 07:46:12;;;;;;;2.15;1.95;;;44.90;1.00;;;;;;5049083;28;20047;-58
2023/07/08 07:48:37;;;;;;;2.42;2.13;;;45.00;1.00;;;;;;5043165;28;20037;-57
2023/07/08 07:51:05;;;;;;;2.38;1.65;;;44.70;1.00;;;;;;5046316;28;20090;-59
2023/07/08 07:53:31;;;;;;;2.60;1.63;;;44.40;1.00;;;;;;5027179;28;20505;-58
2023/07/08 07:56:03;;;;;;;2.17;2.00;;;44.50;1.00;;;;;;5047324;28;20087;-58
2023/07/08 07:58:29;;;;;;;2.70;2.30;;;44.30;1.00;;;;;;5022498;28;20756;-59
2023/07/08 08:00:54;;;;;;;2.03;1.88;;;43.40;1.00;;;;;;5048315;28;20079;-59
2023/07/08 08:03:22;;;;;;;2.10;1.90;;;41.80;1.00;;;;;;5027934;28;20028;-59
2023/07/08 08:05:47;;;;;;;2.90;1.83;;;41.90;1.00;;;;;;5048319;28;20366;-57
2023/07/08 08:08:13;;;;;;;4.25;1.98;;;42.40;1.00;;;;;;5040871;28;20037;-58
2023/07/08 08:10:39;;;;;;;3.38;1.92;;;42.60;1.00;;;;;;5049158;28;20029;-59
2023/07/08 08:13:04;;;;;;;3.83;2.05;;;42.20;1.00;;;;;;5019177;28;20026;-57
2023/07/08 08:15:30;;;;;;;2.22;1.95;;;42.00;1.00;;;;;;5023736;28;20079;-59
2023/07/08 08:17:56;;;;;;;2.10;1.90;;;41.10;1.00;;;;;;5027168;28;20749;-59
2023/07/08 08:20:24;;;;;;;5.22;2.00;;;40.70;1.00;;;;;;5025342;28;20013;-61
2023/07/08 08:22:50;;;;;;;2.30;1.70;;;40.00;1.00;;;;;;5029348;28;20017;-58
2023/07/08 08:25:20;;;;;;;4.13;1.98;;;40.20;1.00;;;;;;5027585;28;20393;-57
2023/07/08 08:27:45;;;;;;;2.33;1.80;;;40.10;1.00;;;;;;5029070;28;20072;-58
2023/07/08 08:30:13;;;;;;;2.20;1.70;;;39.70;1.00;;;;;;5036367;28;20108;-59
2023/07/08 08:32:38;;;;;;;4.25;1.50;;;40.30;1.00;;;;;;5048539;28;20119;-58
2023/07/08 08:35:05;;;;;;;2.30;1.75;;;40.70;1.00;;;;;;5027939;28;20101;-58
2023/07/08 08:37:31;;;;;;;1.63;1.52;;;40.00;1.00;;;;;;5027307;28;20159;-58
2023/07/08 08:39:56;;;;;;;1.98;1.75;;;39.20;1.00;;;;;;5048447;28;20021;-59
2023/07/08 08:42:39;;;;;;;3.85;1.77;;;38.50;1.00;;;;;;5028120;28;20036;-60
2023/07/08 08:45:07;;;;;;;1.98;1.63;;;37.70;1.00;;;;;;5009475;28;20030;-58
2023/07/08 08:47:45;;;;;;;2.20;1.90;;;37.60;1.00;;;;;;5023597;28;20105;-59
2023/07/08 08:50:43;;;;;;;2.03;1.67;;;37.00;1.00;;;;;;5050873;28;20032;-60
2023/07/08 08:53:12;;;;;;;2.67;1.80;;;36.60;1.00;;;;;;5013212;28;20105;-59
2023/07/08 08:55:38;;;;;;;2.00;1.80;;;36.30;1.00;;;;;;5047068;28;20022;-58
2023/07/08 08:58:13;;;;;;;1.88;1.70;;;36.60;1.00;;;;;;5032706;28;20393;-58
2023/07/08 09:00:55;;;;;;;2.22;1.40;;;36.60;1.00;;;;;;5014380;28;20083;-58
2023/07/08 09:03:38;;;;;;;1.40;1.30;;;36.60;1.00;;;;;;5033063;28;20064;-58
2023/07/08 09:06:10;;;;;;;1.65;1.52;;;35.80;1.00;;;;;;5017731;28;20444;-58
2023/07/08 09:08:37;;;;;;;2.55;1.95;;;35.70;1.00;;;;;;5032613;28;20037;-58
2023/07/08 09:11:22;;;;;;;1.63;1.52;;;35.20;1.00;;;;;;5049666;28;20033;-58
2023/07/08 09:13:48;;;;;;;;;;;35.50;1.00;;;;;;5023953;28;20493;-58
2023/07/08 09:16:28;;;;;;;2.75;1.70;;;35.00;1.00;;;;;;5045411;28;20377;-58
2023/07/08 09:18:59;;;;;;;1.77;1.67;;;34.50;1.00;;;;;;5031237;28;20125;-58
2023/07/08 09:21:49;;;;;;;1.50;1.40;;;34.10;1.00;;;;;;5045252;28;20045;-58
2023/07/08 09:24:27;;;;;;;2.33;1.45;;;34.50;1.00;;;;;;5029212;28;20064;-58
2023/07/08 09:26:56;;;;;;;2.28;1.48;;;35.10;1.00;;;;;;5024351;28;20039;-58
2023/07/08 09:29:22;;;;;;;3.58;1.73;;;35.00;1.00;;;;;;5027240;28;20043;-58
2023/07/08 09:31:48;;;;;;;1.98;1.50;;;34.90;1.00;;;;;;5024457;28;20104;-59
2023/07/08 09:34:22;;;;;;;2.60;1.52;;;34.90;1.00;;;;;;5032255;28;20061;-57
2023/07/08 09:36:49;;;;;;;3.45;1.80;;;35.30;1.00;;;;;;5024774;28;20523;-58
2023/07/08 09:39:20;;;;;;;1.67;1.55;;;35.70;1.00;;;;;;5026383;28;20525;-57
2023/07/08 09:41:47;;;;;;;1.73;1.63;;;35.40;1.00;;;;;;5029649;28;20028;-58
2023/07/08 09:44:33;;;;;;;2.88;1.77;;;34.90;1.00;;;;;;5030761;28;20036;-58
2023/07/08 09:46:59;;;;;;;2.22;1.60;;;34.40;1.00;;;;;;5029740;28;20033;-58
2023/07/08 09:49:31;;;;;;;3.03;1.65;;;34.40;1.00;;;;;;5026852;28;20522;-59
2023/07/08 09:51:58;;;;;;;1.90;1.33;;;34.50;1.00;;;;;;5012699;28;20036;-59
2023/07/08 09:54:26;;;;;;;1.92;1.33;;;34.30;1.00;;;;;;5032017;28;20026;-58
2023/07/08 09:56:59;;;;;;;2.08;1.75;;;34.10;1.00;;;;;;5030514;28;20036;-58
2023/07/08 09:59:31;;;;;;;1.50;1.40;;;34.10;1.00;;;;;;5028331;28;20018;-58
2023/07/08 10:02:00;;;;;;;2.08;1.60;;;34.30;1.00;;;;;;5030763;28;20063;-59
2023/07/08 10:04:26;;;;;;;1.80;1.50;;;34.50;1.00;;;;;;5049554;28;20040;-54
2023/07/08 10:06:54;;;;;;;2.28;1.85;;;34.40;1.00;;;;;;5051871;28;20029;-58
2023/07/08 10:09:24;;;;;;;1.77;1.67;;;34.00;1.00;;;;;;5044591;28;20050;-57
2023/07/08 10:12:03;;;;;;;2.00;1.45;;;34.10;1.00;;;;;;5031850;28;20033;-58
2023/07/08 10:14:34;;;;;;;3.30;1.88;;;34.10;1.00;;;;;;5022016;28;20025;-57
2023/07/08 10:17:01;;;;;;;2.55;1.98;;;33.90;1.00;;;;;;5051536;28;20399;-58
2023/07/08 10:19:27;;;;;;;1.95;1.50;;;33.30;1.00;;;;;;5030264;28;20021;-59
2023/07/08 10:21:55;;;;;;;2.70;1.80;;;33.20;1.00;;;;;;5031441;28;20029;-59
2023/07/08 10:24:39;;;;;;;2.53;1.67;;;32.90;1.00;;;;;;5041055;28;20029;-58
2023/07/08 10:27:32;;;;;;;3.15;1.90;;;32.50;1.00;;;;;;5018722;28;20048;-57
2023/07/08 10:29:58;;;;;;;1.88;1.67;;;32.10;1.00;;;;;;5031740;28;20046;-57
2023/07/08 10:32:30;;;;;;;1.48;1.38;;;32.00;1.00;;;;;;5037901;28;20422;-58
2023/07/08 10:35:07;;;;;;;2.25;1.83;;;32.00;1.00;;;;;;5016519;28;20034;-56
2023/07/08 10:37:40;;;;;;;3.08;1.70;;;32.00;1.00;;;;;;5028733;28;20026;-57
2023/07/08 10:40:33;;;;;;;1.98;1.73;;;32.00;1.00;;;;;;5030932;28;20155;-57
2023/07/08 10:43:14;;;;;;;1.73;1.50;;;32.10;1.00;;;;;;5011981;28;20034;-57
2023/07/08 10:45:51;;;;;;;3.83;1.90;;;32.20;1.00;;;;;;5032624;28;20021;-57
2023/07/08 10:48:29;;;;;;;1.83;1.63;;;32.20;1.00;;;;;;5022098;28;20057;-56
2023/07/08 10:51:29;;;;;;;2.33;1.98;;;32.00;1.00;;;;;;5026578;28;20030;-57
2023/07/08 10:54:21;;;;;;;4.28;2.22;;;31.70;1.00;;;;;;5028192;28;20094;-56
2023/07/08 10:56:54;;;;;;;2.83;1.95;;;31.50;1.00;;;;;;5013402;28;20032;-56
2023/07/08 10:59:51;;;;;;;2.60;2.10;;;31.20;1.00;;;;;;5028518;28;20116;-55
2023/07/08 11:02:43;;;;;;;2.40;2.20;;;30.90;1.00;;;;;;5017393;28;20087;-58
2023/07/08 11:05:43;;;;;;;2.40;2.20;;;30.60;1.00;;;;;;5015939;28;20653;-59
2023/07/08 11:08:21;;;;;;;3.05;2.05;;;30.40;1.00;;;;;;5012039;28;20054;-57
2023/07/08 11:10:54;;;;;;;3.00;2.25;;;30.20;1.00;;;;;;5008339;28;20030;-57
2023/07/08 11:13:24;;;;;;;4.25;2.10;;;30.10;1.00;;;;;;5025684;28;20507;-57
2023/07/08 11:15:54;;;;;;;1.80;1.70;;;30.00;1.00;;;;;;5048034;28;20045;-57
2023/07/08 11:18:35;;;;;;;2.35;2.05;;;30.00;1.00;;;;;;5025768;28;20036;-58
2023/07/08 11:21:22;;;;;;;2.47;1.60;;;30.20;1.00;;;;;;5019490;28;20033;-56
2023/07/08 11:24:01;;;;;;;2.85;2.50;;;30.30;1.00;;;;;;5039583;28;20112;-58
2023/07/08 11:26:33;;;;;;;3.08;2.20;;;30.10;1.00;;;;;;5026081;28;20399;-58
2023/07/08 11:29:00;;;;;;;2.50;1.88;;;29.90;1.00;;;;;;5046295;28;20109;-55
2023/07/08 11:31:31;;;;;;;2.30;2.10;;;29.70;1.00;;;;;;5033119;28;20094;-55
2023/07/08 11:33:59;;;;;;;2.25;2.00;;;29.70;1.00;;;;;;5047927;28;20033;-58
2023/07/08 11:36:26;;;;;;;4.57;2.10;;;29.60;1.00;;;;;;5026695;28;20061;-55
2023/07/08 11:38:57;;;;;;;2.00;1.80;;;29.70;1.00;;;;;;5028002;28;20022;-56
2023/07/08 11:41:28;;;;;;;3.00;2.33;;;29.80;1.00;;;;;;5029214;28;20405;-57
2023/07/08 11:44:04;;;;;;;4.25;1.98;;;29.70;1.00;;;;;;5009608;28;20760;-58
2023/07/08 11:46:34;;;;;;;2.55;2.00;;;29.70;1.00;;;;;;5013217;28;20175;-57
2023/07/08 11:49:12;;;;;;;3.08;2.00;;;29.70;1.00;;;;;;5027718;28;20082;-58
2023/07/08 11:51:44;;;;;;;4.30;2.30;;;29.80;1.00;;;;;;5014541;28;20021;-58
2023/07/08 11:54:30;;;;;;;4.00;2.00;;;29.80;1.00;;;;;;5047466;28;20072;-56
2023/07/08 11:57:19;;;;;;;5.38;2.00;;;30.00;1.00;;;;;;5027402;28;20033;-58
2023/07/08 11:59:46;;;;;;;4.43;2.03;;;30.10;1.00;;;;;;5007548;28;20034;-58
2023/07/08 12:02:15;;;;;;;2.13;1.85;;;30.20;1.00;;;;;;5031857;28;20032;-57
2023/07/08 12:05:02;;;;;;;2.45;1.85;;;30.20;1.00;;;;;;5044084;28;20480;-54
2023/07/08 12:07:36;;;;;;;2.88;2.35;;;30.20;1.00;;;;;;5019072;28;20026;-56
2023/07/08 12:10:28;;;;;;;3.45;2.00;;;30.00;1.00;;;;;;5007468;28;20050;-58
2023/07/08 12:12:54;;;;;;;2.60;2.08;;;29.90;1.00;;;;;;5024175;28;20064;-57
2023/07/08 12:15:24;;;;;;;3.33;2.55;;;29.70;1.00;;;;;;5046461;28;20122;-56
2023/07/08 12:17:59;;;;;;;3.28;2.10;;;29.70;1.00;;;;;;5023922;28;20041;-57
2023/07/08 12:20:33;;;;;;;4.17;1.80;;;29.70;1.00;;;;;;5022280;28;20142;-53
2023/07/08 12:23:00;;;;;;;2.55;2.00;;;29.80;1.00;;;;;;5024778;28;20041;-55
2023/07/08 12:25:34;;;;;;;2.50;2.10;;;29.90;1.00;;;;;;5050111;28;20032;-54
2023/07/08 12:28:00;;;;;;;3.15;1.90;;;29.90;1.00;;;;;;5029305;28;20057;-51
2023/07/08 12:30:29;;;;;;;2.10;1.83;;;30.00;1.00;;;;;;5048348;28;20033;-52
2023/07/08 12:32:55;;;;;;;2.60;2.13;;;30.00;1.00;;;;;;5051285;28;20021;-49
2023/07/08 12:35:31;;;;;;;3.38;1.90;;;30.10;1.00;;;;;;5029983;28;20447;-48
2023/07/08 12:38:12;;;;;;;2.20;1.80;;;30.10;1.00;;;;;;5032360;28;20244;-45
2023/07/08 12:40:38;;;;;;;3.63;2.35;;;30.20;1.00;;;;;;5030249;28;20069;-50
2023/07/08 12:43:09;;;;;;;2.45;2.13;;;30.10;1.00;;;;;;5050459;28;20059;-51
2023/07/08 12:45:34;;;;;;;3.78;2.60;;;29.90;1.00;;;;;;5030439;28;20663;-50
2023/07/08 12:48:00;;;;;;;2.72;2.42;;;29.80;1.00;;;;;;5051938;28;20052;-53
2023/07/08 12:50:25;;;;;;;5.25;2.58;;;29.70;1.00;;;;;;5030159;28;20108;-48
2023/07/08 12:52:51;;;;;;;2.50;2.30;;;29.70;1.00;;;;;;5051734;28;20035;-50
2023/07/08 12:55:16;;;;;;;2.42;2.22;;;29.70;1.00;;;;;;5031312;28;20040;-48
2023/07/08 12:57:47;;;;;;;3.83;2.05;;;29.90;1.00;;;;;;5033308;28;20059;-52
2023/07/08 13:00:40;;;;;;;2.70;2.13;;;29.90;1.00;;;;;;5018602;28;20048;-50
2023/07/08 13:03:14;;;;;;;4.18;2.33;;;29.90;1.00;;;;;;5021842;28;20439;-50
2023/07/08 13:05:41;;;;;;;3.10;2.70;;;29.70;1.00;;;;;;5034745;28;20055;-48